createdAt,value
2022-08-17T00:01:51.397Z,4.22
2022-08-17T00:04:19.329Z,4.53
2022-08-17T00:06:49.496Z,4.78
2022-08-17T00:09:19.069Z,4.70
2022-08-17T00:12:35.050Z,4.43
2022-08-17T00:14:35.929Z,4.90
2022-08-17T00:17:04.466Z,5.03
2022-08-17T00:19:32.563Z,4.80
2022-08-17T00:22:32.472Z,4.43
2022-08-17T00:24:50.142Z,4.60
2022-08-17T00:27:17.156Z,4.63
2022-08-17T00:29:45.629Z,4.70
2022-08-17T00:33:13.740Z,4.70
2022-08-17T00:35:00.161Z,4.60
2022-08-17T00:37:26.942Z,4.75
2022-08-17T00:39:53.791Z,4.82
2022-08-17T00:42:20.628Z,5.07
2022-08-17T00:44:47.380Z,5.22
2022-08-17T00:47:14.135Z,4.72
2022-08-17T00:49:40.881Z,4.97
2022-08-17T00:52:15.459Z,4.90
2022-08-17T00:54:46.435Z,4.70
2022-08-17T00:57:21.072Z,4.95
2022-08-17T01:00:01.950Z,4.32
2022-08-17T01:02:42.061Z,5.43
2022-08-17T01:05:18.537Z,4.93
2022-08-17T01:07:47.673Z,4.72
2022-08-17T01:10:57.494Z,4.30
2022-08-17T01:13:04.016Z,4.70
2022-08-17T01:15:33.856Z,4.55
2022-08-17T01:18:00.513Z,4.68
2022-08-17T01:20:27.473Z,4.80
2022-08-17T01:22:54.331Z,4.43
2022-08-17T01:25:22.134Z,4.47
2022-08-17T01:27:49.410Z,5.15
2022-08-17T01:30:56.662Z,4.72
2022-08-17T01:33:04.217Z,4.75
2022-08-17T01:35:30.977Z,4.70
2022-08-17T01:37:57.605Z,4.93
2022-08-17T01:40:35.812Z,4.53
2022-08-17T01:43:09.178Z,4.60
2022-08-17T01:45:42.589Z,4.93
2022-08-17T01:48:11.838Z,4.70
2022-08-17T01:50:41.517Z,4.55
2022-08-17T01:53:13.473Z,4.80
2022-08-17T01:55:59.831Z,4.22
2022-08-17T01:58:26.740Z,4.90
2022-08-17T02:01:00.841Z,4.93
2022-08-17T02:03:28.722Z,4.20
2022-08-17T02:05:55.504Z,4.80
2022-08-17T02:08:38.865Z,4.57
2022-08-17T02:11:11.714Z,5.22
2022-08-17T02:13:38.698Z,4.78
2022-08-17T02:16:05.807Z,4.30
2022-08-17T02:18:33.016Z,5.40
2022-08-17T02:20:59.972Z,4.57
2022-08-17T02:23:28.877Z,4.68
2022-08-17T02:25:58.907Z,4.47
2022-08-17T02:28:26.081Z,4.45
2022-08-17T02:31:01.669Z,4.93
2022-08-17T02:33:42.765Z,5.10
2022-08-17T02:36:12.749Z,4.75
2022-08-17T02:38:41.049Z,5.00
2022-08-17T02:41:07.972Z,4.70
2022-08-17T02:43:34.874Z,4.97
2022-08-17T02:46:01.815Z,4.55
2022-08-17T02:48:30.507Z,4.95
2022-08-17T02:51:00.029Z,4.57
2022-08-17T02:53:27.569Z,4.82
2022-08-17T02:56:00.485Z,4.65
2022-08-17T02:58:34.743Z,4.82
2022-08-17T03:01:07.213Z,4.53
2022-08-17T03:03:35.161Z,4.68
2022-08-17T03:06:01.887Z,4.80
2022-08-17T03:08:28.885Z,4.68
2022-08-17T03:10:55.849Z,4.57
2022-08-17T03:13:22.542Z,5.30
2022-08-17T03:15:50.492Z,5.00
2022-08-17T03:18:25.476Z,4.57
2022-08-17T03:21:01.121Z,5.00
2022-08-17T03:23:29.652Z,4.75
2022-08-17T03:25:57.934Z,4.57
2022-08-17T03:28:25.875Z,5.00
2022-08-17T03:30:52.605Z,5.05
2022-08-17T03:33:20.950Z,4.40
2022-08-17T03:35:47.932Z,5.00
2022-08-17T03:38:16.973Z,5.65
2022-08-17T03:40:58.526Z,5.78
2022-08-17T03:43:29.385Z,6.05
2022-08-17T03:46:33.929Z,5.43
2022-08-17T03:49:22.874Z,5.27
2022-08-17T03:52:08.278Z,5.00
2022-08-17T03:54:53.696Z,5.70
2022-08-17T03:57:20.712Z,5.43
2022-08-17T03:59:49.461Z,5.20
2022-08-17T04:02:21.320Z,5.40
2022-08-17T04:04:50.784Z,5.75
2022-08-17T04:07:19.443Z,5.45
2022-08-17T04:09:46.279Z,5.50
2022-08-17T04:12:16.008Z,6.30
2022-08-17T04:14:53.657Z,7.93
2022-08-17T04:17:28.062Z,7.10
2022-08-17T04:19:55.943Z,5.88
2022-08-17T04:22:32.737Z,6.60
2022-08-17T04:25:16.242Z,6.25
2022-08-17T04:27:42.905Z,7.00
2022-08-17T04:30:10.502Z,6.20
2022-08-17T04:33:03.988Z,6.53
2022-08-17T04:35:37.423Z,7.07
2022-08-17T04:38:04.890Z,6.20
2022-08-17T04:40:52.919Z,6.70
2022-08-17T04:43:23.078Z,7.18
2022-08-17T04:45:59.387Z,6.60
2022-08-17T04:48:35.530Z,6.35
2022-08-17T04:51:06.021Z,7.20
2022-08-17T04:53:32.727Z,6.35
2022-08-17T04:55:59.337Z,6.60
2022-08-17T04:58:26.049Z,6.35
2022-08-17T05:00:53.215Z,6.63
2022-08-17T05:03:20.147Z,6.22
2022-08-17T05:05:49.658Z,5.60
2022-08-17T05:08:18.930Z,5.53
2022-08-17T05:10:46.734Z,5.50
2022-08-17T05:13:23.179Z,5.70
2022-08-17T05:15:55.021Z,5.50
2022-08-17T05:18:22.258Z,5.50
2022-08-17T05:20:52.375Z,5.20
2022-08-17T05:23:22.195Z,5.30
2022-08-17T05:25:51.275Z,5.15
2022-08-17T05:28:22.911Z,5.30
2022-08-17T05:30:51.412Z,5.25
2022-08-17T05:33:21.843Z,5.07
2022-08-17T05:35:51.773Z,5.28
2022-08-17T05:38:20.977Z,4.80
2022-08-17T05:40:48.120Z,4.65
2022-08-17T05:43:23.897Z,4.80
2022-08-17T05:46:00.185Z,4.90
2022-08-17T05:48:39.690Z,4.32
2022-08-17T05:51:23.813Z,5.28
2022-08-17T05:53:59.635Z,4.85
2022-08-17T05:56:49.150Z,4.90
2022-08-17T05:59:29.274Z,4.70
2022-08-17T06:02:15.461Z,4.72
2022-08-17T06:04:48.316Z,4.80
2022-08-17T06:07:28.684Z,4.68
2022-08-17T06:10:00.638Z,4.88
2022-08-17T06:13:02.163Z,4.53
2022-08-17T06:15:43.349Z,5.03
2022-08-17T06:18:15.912Z,5.20
2022-08-17T06:23:51.789Z,5.40
2022-08-17T06:26:27.507Z,5.32
2022-08-17T06:29:18.875Z,5.20
2022-08-17T06:31:46.812Z,4.80
2022-08-17T06:34:13.672Z,5.15
2022-08-17T06:37:09.020Z,4.97
2022-08-17T06:39:48.004Z,4.80
2022-08-17T06:42:54.861Z,4.68
2022-08-17T06:45:35.149Z,4.95
2022-08-17T06:48:24.806Z,4.63
2022-08-17T06:51:03.463Z,5.07
2022-08-17T06:53:36.884Z,5.18
2022-08-17T06:56:09.196Z,5.50
2022-08-17T06:58:40.214Z,6.15
2022-08-17T07:01:16.893Z,5.43
2022-08-17T07:03:57.524Z,5.68
2022-08-17T07:06:29.219Z,5.55
2022-08-17T07:08:58.188Z,5.97
2022-08-17T07:11:35.989Z,6.32
2022-08-17T07:14:39.868Z,5.90
2022-08-17T07:17:13.243Z,5.80
2022-08-17T07:19:47.507Z,5.25
2022-08-17T07:22:30.441Z,5.65
2022-08-17T07:25:18.377Z,4.90
2022-08-17T07:27:51.195Z,5.20
2022-08-17T07:30:27.044Z,5.90
2022-08-17T07:32:59.321Z,5.50
2022-08-17T07:35:37.615Z,5.22
2022-08-17T07:38:25.330Z,5.63
2022-08-17T07:40:57.494Z,5.35
2022-08-17T07:43:31.939Z,5.20
2022-08-17T07:46:23.652Z,5.15
2022-08-17T07:48:53.477Z,5.40
2022-08-17T07:51:44.269Z,5.38
2022-08-17T07:54:22.923Z,5.28
2022-08-17T07:56:55.711Z,5.13
2022-08-17T07:59:34.533Z,4.95
2022-08-17T08:02:14.687Z,5.38
2022-08-17T08:05:01.498Z,5.15
2022-08-17T08:07:34.583Z,5.20
2022-08-17T08:10:07.312Z,5.22
2022-08-17T08:12:47.239Z,5.20
2022-08-17T08:15:22.191Z,5.30
2022-08-17T08:20:53.474Z,4.80
2022-08-17T08:23:33.523Z,4.93
2022-08-17T08:26:37.526Z,5.00
2022-08-17T08:29:28.169Z,4.80
2022-08-17T08:32:25.834Z,5.00
2022-08-17T08:35:32.386Z,4.88
2022-08-17T08:38:02.069Z,5.20
2022-08-17T08:40:40.262Z,4.65
2022-08-17T08:43:22.543Z,5.07
2022-08-17T08:46:21.261Z,4.55
2022-08-17T08:49:16.939Z,5.57
2022-08-17T08:51:55.491Z,5.00
2022-08-17T08:54:44.275Z,4.95
2022-08-17T08:57:26.432Z,4.97
2022-08-17T09:00:09.571Z,5.35
2022-08-17T09:03:02.946Z,4.68
2022-08-17T09:05:54.048Z,5.20
2022-08-17T09:08:29.602Z,5.10
2022-08-17T09:11:24.347Z,5.30
2022-08-17T09:14:22.115Z,5.25
2022-08-17T09:17:04.473Z,5.40
2022-08-17T09:19:35.154Z,5.43
2022-08-17T09:22:20.625Z,6.15
2022-08-17T09:24:57.067Z,5.35
2022-08-17T09:27:33.035Z,6.10
2022-08-17T09:30:04.064Z,5.47
2022-08-17T09:32:46.977Z,5.30
2022-08-17T09:35:25.067Z,5.78
2022-08-17T09:38:05.563Z,5.38
2022-08-17T09:40:57.052Z,5.95
2022-08-17T09:43:43.678Z,6.15
2022-08-17T09:46:18.437Z,5.57
2022-08-17T09:49:03.944Z,5.78
2022-08-17T09:51:35.824Z,5.82
2022-08-17T09:54:34.739Z,5.72
2022-08-17T09:57:28.633Z,5.93
2022-08-17T10:00:18.833Z,7.38
2022-08-17T10:03:16.277Z,7.72
2022-08-17T10:06:08.278Z,6.38
2022-08-17T10:08:51.852Z,6.30
2022-08-17T10:12:07.428Z,6.00
2022-08-17T10:14:43.773Z,5.53
2022-08-17T10:17:27.766Z,5.28
2022-08-17T10:20:06.228Z,5.07
2022-08-17T10:23:02.733Z,5.78
2022-08-17T10:25:55.276Z,5.30
2022-08-17T10:28:29.873Z,5.30
2022-08-17T10:31:23.253Z,5.45
2022-08-17T10:34:04.981Z,5.18
2022-08-17T10:36:37.792Z,5.55
2022-08-17T10:39:32.026Z,4.72
2022-08-17T10:42:16.001Z,5.10
2022-08-17T10:45:05.280Z,4.47
2022-08-17T10:48:07.873Z,4.78
2022-08-17T10:51:06.032Z,5.07
2022-08-17T10:53:32.596Z,5.80
2022-08-17T10:56:14.523Z,5.70
2022-08-17T10:59:00.752Z,5.13
2022-08-17T11:01:37.793Z,5.85
2022-08-17T11:04:08.420Z,5.45
2022-08-17T11:06:49.517Z,6.53
2022-08-17T11:09:19.868Z,6.13
2022-08-17T11:11:59.388Z,6.13
2022-08-17T11:14:52.571Z,5.93
2022-08-17T11:17:36.947Z,6.03
2022-08-17T11:20:35.665Z,5.47
2022-08-17T11:23:37.659Z,5.57
2022-08-17T11:26:26.459Z,5.85
2022-08-17T11:29:05.088Z,5.53
2022-08-17T11:31:38.498Z,5.60
2022-08-17T11:34:26.186Z,6.97
2022-08-17T11:37:11.207Z,6.00
2022-08-17T11:40:11.625Z,5.78
2022-08-17T11:43:00.444Z,5.88
2022-08-17T11:45:45.317Z,5.72
2022-08-17T11:48:53.735Z,5.82
2022-08-17T11:51:44.351Z,5.72
2022-08-17T11:54:34.357Z,5.40
2022-08-17T11:57:26.471Z,5.93
2022-08-17T11:59:59.091Z,5.50
2022-08-17T12:02:32.446Z,5.70
2022-08-17T12:05:05.100Z,5.80
2022-08-17T12:07:47.576Z,5.47
2022-08-17T12:10:17.498Z,5.13
2022-08-17T12:12:48.176Z,5.55
2022-08-17T12:15:18.775Z,5.05
2022-08-17T12:17:57.299Z,4.82
2022-08-17T12:20:33.263Z,5.57
2022-08-17T12:23:18.839Z,5.05
2022-08-17T12:26:00.890Z,4.43
2022-08-17T12:28:31.258Z,4.22
2022-08-17T12:31:05.750Z,4.63
2022-08-17T12:33:35.367Z,4.22
2022-08-17T12:36:06.269Z,4.18
2022-08-17T12:38:35.875Z,4.53
2022-08-17T12:41:25.025Z,4.57
2022-08-17T12:44:02.813Z,3.80
2022-08-17T12:46:48.987Z,3.90
2022-08-17T12:49:36.882Z,3.90
2022-08-17T12:52:17.652Z,3.70
2022-08-17T12:54:44.257Z,3.85
2022-08-17T12:57:40.904Z,3.45
2022-08-17T13:00:12.286Z,3.63
2022-08-17T13:02:57.382Z,3.58
2022-08-17T13:05:28.870Z,3.50
2022-08-17T13:07:57.927Z,3.70
2022-08-17T13:10:32.516Z,3.65
2022-08-17T13:13:03.650Z,3.63
2022-08-17T13:15:53.151Z,3.70
2022-08-17T13:18:31.499Z,3.90
2022-08-17T13:20:59.388Z,3.42
2022-08-17T13:23:29.134Z,3.70
2022-08-17T13:26:01.644Z,3.65
2022-08-17T13:28:35.500Z,4.18
2022-08-17T13:31:28.264Z,4.20
2022-08-17T13:34:18.208Z,4.10
2022-08-17T13:36:46.558Z,3.90
2022-08-17T13:39:25.606Z,4.15
2022-08-17T13:41:55.302Z,4.38
2022-08-17T13:44:39.558Z,4.20
2022-08-17T13:47:16.975Z,3.92
2022-08-17T13:49:49.271Z,3.50
2022-08-17T13:52:38.934Z,4.00
2022-08-17T13:55:19.217Z,4.00
2022-08-17T13:57:49.521Z,3.47
2022-08-17T14:00:33.606Z,3.92
2022-08-17T14:03:02.724Z,3.55
2022-08-17T14:05:30.976Z,3.70
2022-08-17T14:08:43.335Z,4.10
2022-08-17T14:11:09.996Z,3.85
2022-08-17T14:13:37.068Z,4.10
2022-08-17T14:16:03.864Z,4.00
2022-08-17T14:18:42.023Z,4.18
2022-08-17T14:21:17.499Z,4.22
2022-08-17T14:23:49.080Z,3.83
2022-08-17T14:26:20.973Z,4.20
2022-08-17T14:28:54.507Z,3.85
2022-08-17T14:31:21.954Z,4.00
2022-08-17T14:33:48.587Z,3.65
2022-08-17T14:36:15.205Z,3.90
2022-08-17T14:38:41.798Z,3.75
2022-08-17T14:41:08.737Z,3.75
2022-08-17T14:43:35.648Z,4.00
2022-08-17T14:46:02.358Z,3.55
2022-08-17T14:48:29.134Z,3.70
2022-08-17T14:50:58.850Z,3.50
2022-08-17T14:53:25.526Z,3.60
2022-08-17T14:55:52.241Z,3.60
2022-08-17T14:58:19.364Z,3.80
2022-08-17T15:00:46.034Z,3.95
2022-08-17T15:03:14.420Z,4.07
2022-08-17T15:05:41.398Z,3.97
2022-08-17T15:08:08.243Z,3.55
2022-08-17T15:10:35.858Z,3.50
2022-08-17T15:13:02.654Z,3.25
2022-08-17T15:15:29.818Z,3.75
2022-08-17T15:17:57.251Z,3.72
2022-08-17T15:20:27.869Z,3.65
2022-08-17T15:22:55.899Z,3.75
2022-08-17T15:25:25.071Z,4.53
2022-08-17T15:27:52.357Z,4.30
2022-08-17T15:30:20.041Z,3.70
2022-08-17T15:32:51.204Z,3.72
2022-08-17T15:35:28.076Z,3.67
2022-08-17T15:38:04.555Z,3.50
2022-08-17T15:40:31.572Z,3.58
2022-08-17T15:43:11.189Z,3.90
2022-08-17T15:45:39.108Z,3.78
2022-08-17T15:48:05.993Z,3.35
2022-08-17T15:50:32.885Z,3.50
2022-08-17T15:53:01.189Z,3.53
2022-08-17T15:55:30.198Z,3.88
2022-08-17T15:57:56.901Z,3.60
2022-08-17T16:00:24.056Z,3.35
2022-08-17T16:03:46.298Z,3.70
2022-08-17T16:05:37.836Z,3.80
2022-08-17T16:08:07.613Z,3.70
2022-08-17T16:10:35.029Z,3.45
2022-08-17T16:13:03.730Z,3.80
2022-08-17T16:15:31.440Z,3.70
2022-08-17T16:17:58.109Z,3.80
2022-08-17T16:20:24.696Z,3.95
2022-08-17T16:22:51.638Z,4.05
2022-08-17T16:25:51.985Z,3.60
2022-08-17T16:28:16.382Z,3.80
2022-08-17T16:30:43.536Z,3.80
2022-08-17T16:33:14.992Z,4.00
2022-08-17T16:35:42.040Z,3.90
2022-08-17T16:38:09.459Z,3.70
2022-08-17T16:40:36.448Z,3.80
2022-08-17T16:43:04.462Z,4.60
2022-08-17T16:45:39.865Z,4.00
2022-08-17T16:48:07.825Z,4.13
2022-08-17T16:50:37.592Z,4.22
2022-08-17T16:53:17.657Z,4.55
2022-08-17T16:55:45.965Z,4.32
2022-08-17T16:58:12.948Z,4.10
2022-08-17T17:00:41.766Z,4.20
2022-08-17T17:03:19.594Z,4.55
2022-08-17T17:05:55.205Z,4.38
2022-08-17T17:08:33.077Z,4.45
2022-08-17T17:11:09.163Z,4.72
2022-08-17T17:13:54.289Z,4.28
2022-08-17T17:16:26.617Z,4.40
2022-08-17T17:19:10.219Z,4.70
2022-08-17T17:21:43.785Z,4.10
2022-08-17T17:24:17.078Z,4.45
2022-08-17T17:27:07.312Z,4.32
2022-08-17T17:30:12.376Z,3.85
2022-08-17T17:33:01.617Z,4.40
2022-08-17T17:35:44.702Z,4.60
2022-08-17T17:38:18.730Z,4.05
2022-08-17T17:40:50.029Z,4.32
2022-08-17T17:43:38.937Z,4.47
2022-08-17T17:46:29.068Z,4.40
2022-08-17T17:49:00.326Z,4.72
2022-08-17T17:52:07.874Z,4.18
2022-08-17T17:55:05.377Z,4.75
2022-08-17T17:57:56.093Z,4.82
2022-08-17T18:00:54.798Z,4.47
2022-08-17T18:04:01.717Z,4.55
2022-08-17T18:06:46.434Z,4.40
2022-08-17T18:09:22.090Z,4.78
2022-08-17T18:12:12.049Z,4.90
2022-08-17T18:15:10.004Z,4.40
2022-08-17T18:17:39.501Z,4.60
2022-08-17T18:20:07.006Z,4.53
2022-08-17T18:22:34.068Z,4.70
2022-08-17T18:25:00.725Z,4.57
2022-08-17T18:27:38.707Z,4.85
2022-08-17T18:30:14.707Z,4.80
2022-08-17T18:32:43.558Z,4.88
2022-08-17T18:35:14.221Z,4.90
2022-08-17T18:37:44.828Z,5.43
2022-08-17T18:40:17.691Z,4.72
2022-08-17T18:42:59.811Z,5.10
2022-08-17T18:45:43.394Z,5.30
2022-08-17T18:48:27.935Z,5.40
2022-08-17T18:50:58.796Z,4.97
2022-08-17T18:53:39.467Z,5.15
2022-08-17T18:56:20.147Z,5.00
2022-08-17T18:59:24.593Z,4.78
2022-08-17T19:02:34.547Z,5.03
2022-08-17T19:05:36.704Z,4.40
2022-08-17T19:08:24.058Z,5.20
2022-08-17T19:11:17.453Z,5.93
2022-08-17T19:13:57.479Z,6.13
2022-08-17T19:16:29.202Z,6.07
2022-08-17T19:19:22.148Z,5.32
2022-08-17T19:21:54.721Z,5.38
2022-08-17T19:24:25.996Z,5.70
2022-08-17T19:27:20.484Z,5.82
2022-08-17T19:29:50.729Z,5.60
2022-08-17T19:32:21.953Z,5.70
2022-08-17T19:34:49.237Z,5.45
2022-08-17T19:37:34.174Z,5.18
2022-08-17T19:40:51.641Z,6.03
2022-08-17T19:43:42.353Z,5.40
2022-08-17T19:46:35.569Z,5.30
2022-08-17T19:49:33.415Z,5.40
2022-08-17T19:52:37.618Z,5.72
2022-08-17T19:55:20.601Z,5.55
2022-08-17T19:58:18.661Z,5.22
2022-08-17T20:00:51.056Z,5.88
2022-08-17T20:03:22.635Z,5.43
2022-08-17T20:06:11.935Z,5.80
2022-08-17T20:08:57.325Z,6.13
2022-08-17T20:11:58.367Z,6.20
2022-08-17T20:14:35.410Z,5.15
2022-08-17T20:17:03.222Z,5.70
2022-08-17T20:19:52.035Z,5.28
2022-08-17T20:22:59.229Z,5.70
2022-08-17T20:25:37.861Z,6.03
2022-08-17T20:28:28.694Z,5.63
2022-08-17T20:30:56.320Z,6.03
2022-08-17T20:33:34.174Z,5.30
2022-08-17T20:36:11.698Z,5.72
2022-08-17T20:38:43.898Z,6.60
2022-08-17T20:41:15.026Z,5.93
2022-08-17T20:43:47.940Z,6.13
2022-08-17T20:46:22.628Z,5.90
2022-08-17T20:48:53.527Z,6.65
2022-08-17T20:51:34.541Z,6.68
2022-08-17T20:54:07.635Z,6.95
2022-08-17T20:56:43.556Z,6.55
2022-08-17T20:59:31.572Z,7.50
2022-08-17T21:02:17.690Z,7.40
2022-08-17T21:04:54.777Z,6.60
2022-08-17T21:07:43.450Z,6.80
2022-08-17T21:10:15.815Z,6.50
2022-08-17T21:12:57.388Z,6.93
2022-08-17T21:15:34.833Z,6.53
2022-08-17T21:18:14.774Z,6.90
2022-08-17T21:21:07.235Z,6.80
2022-08-17T21:23:58.867Z,6.65
2022-08-17T21:26:50.696Z,6.95
2022-08-17T21:29:30.994Z,6.38
2022-08-17T21:31:59.300Z,7.15
2022-08-17T21:34:34.592Z,7.10
2022-08-17T21:37:21.030Z,7.20
2022-08-17T21:40:18.262Z,6.80
2022-08-17T21:42:52.660Z,6.75
2022-08-17T21:45:28.862Z,6.80
2022-08-17T21:48:13.794Z,6.80
2022-08-17T21:50:47.443Z,7.57
2022-08-17T21:53:33.085Z,7.35
2022-08-17T21:56:00.683Z,7.00
2022-08-17T21:58:34.128Z,7.75
2022-08-17T22:01:29.045Z,6.95
2022-08-17T22:04:00.660Z,7.57
2022-08-17T22:06:35.195Z,7.05
2022-08-17T22:09:06.837Z,7.65
2022-08-17T22:11:56.212Z,7.35
2022-08-17T22:14:52.448Z,8.32
2022-08-17T22:17:45.200Z,7.25
2022-08-17T22:20:18.566Z,6.40
2022-08-17T22:23:06.781Z,6.70
2022-08-17T22:25:37.465Z,7.05
2022-08-17T22:28:07.961Z,7.22
2022-08-17T22:30:43.705Z,7.05
2022-08-17T22:33:41.515Z,6.10
2022-08-17T22:36:25.932Z,6.72
2022-08-17T22:39:01.891Z,5.85
2022-08-17T22:42:02.351Z,6.25
2022-08-17T22:44:37.412Z,6.13
2022-08-17T22:49:53.797Z,6.70
2022-08-17T22:52:31.588Z,6.45
2022-08-17T22:55:32.145Z,6.57
2022-08-17T22:58:18.594Z,6.25
2022-08-17T23:00:48.280Z,6.18
2022-08-17T23:03:23.592Z,6.65
2022-08-17T23:06:05.160Z,6.30
2022-08-17T23:08:35.856Z,6.22
2022-08-17T23:11:02.990Z,6.18
2022-08-17T23:13:33.290Z,6.35
2022-08-17T23:15:59.934Z,7.70
2022-08-17T23:18:27.248Z,7.40
2022-08-17T23:20:57.235Z,7.10
2022-08-17T23:23:26.377Z,7.25
2022-08-17T23:25:54.551Z,7.43
2022-08-17T23:28:21.732Z,7.00
2022-08-17T23:30:48.534Z,6.22
2022-08-17T23:33:29.739Z,7.28
2022-08-17T23:35:59.568Z,6.43
2022-08-17T23:38:27.462Z,8.52
2022-08-17T23:40:55.349Z,8.00
2022-08-17T23:43:25.261Z,7.55
2022-08-17T23:45:57.285Z,7.00
2022-08-17T23:48:32.483Z,6.30
2022-08-17T23:51:18.909Z,6.30
2022-08-17T23:53:49.913Z,6.82
2022-08-17T23:56:25.708Z,7.15
2022-08-17T23:58:54.727Z,6.93
